createdAt,value
2018-07-11T13:54:38.208Z,30.98
2018-07-11T13:57:07.064Z,31.46
2018-07-11T13:59:35.824Z,32.83
2018-07-11T14:02:04.609Z,32.36
2018-07-11T14:04:33.351Z,32.96
2018-07-11T14:07:02.110Z,32.52
2018-07-11T14:09:30.867Z,30.58
2018-07-11T14:11:59.674Z,31.68
2018-07-11T14:14:28.574Z,30.08
2018-07-11T14:16:57.565Z,30.01
2018-07-11T14:19:26.387Z,31.20
2018-07-11T14:21:55.735Z,30.06
2018-07-11T14:24:24.811Z,30.87
2018-07-11T14:26:54.473Z,31.72
2018-07-11T14:29:24.885Z,30.40
2018-07-11T14:31:53.631Z,30.42
2018-07-11T14:34:22.538Z,33.14
2018-07-11T14:36:51.524Z,32.41
2018-07-11T14:39:20.235Z,31.71
2018-07-11T14:41:49.008Z,34.42
2018-07-11T14:44:18.298Z,33.40
2018-07-11T14:46:46.990Z,31.18
2018-07-11T14:49:16.842Z,31.63
2018-07-11T14:51:45.618Z,31.26
2018-07-11T14:54:14.367Z,31.71
2018-07-11T14:56:43.165Z,33.85
2018-07-11T14:59:12.213Z,34.07
2018-07-11T15:01:41.048Z,33.87
2018-07-11T15:04:09.791Z,33.69
2018-07-11T15:06:38.536Z,35.54
2018-07-11T15:09:07.558Z,35.49
2018-07-11T15:11:36.182Z,33.42
2018-07-11T15:14:05.035Z,33.03
2018-07-11T15:16:33.711Z,33.22
2018-07-11T15:19:02.584Z,37.49
2018-07-11T15:21:31.397Z,36.43
2018-07-11T15:24:00.182Z,38.07
2018-07-11T15:26:29.063Z,38.44
2018-07-11T15:28:58.255Z,38.88
2018-07-11T15:31:27.078Z,35.71
2018-07-11T15:33:55.886Z,35.90
2018-07-11T15:36:24.626Z,37.78
2018-07-11T15:38:53.494Z,38.22
2018-07-11T15:41:22.300Z,39.10
2018-07-11T15:43:51.078Z,41.21
2018-07-11T15:46:19.900Z,42.45
2018-07-11T15:48:49.638Z,42.10
2018-07-11T15:51:18.390Z,43.33
2018-07-11T15:53:47.200Z,42.59
2018-07-11T15:56:15.999Z,43.12
2018-07-11T15:58:47.689Z,43.10
2018-07-11T16:01:18.375Z,42.80
2018-07-11T16:03:48.520Z,43.64
2018-07-11T16:06:18.445Z,44.61
2018-07-11T16:08:49.996Z,45.41
2018-07-11T16:11:18.937Z,45.30
2018-07-11T16:13:47.717Z,45.17
2018-07-11T16:16:16.498Z,46.15
2018-07-11T16:18:45.362Z,45.87
2018-07-11T16:21:14.047Z,46.49
2018-07-11T16:23:42.844Z,45.94
2018-07-11T16:26:11.575Z,45.37
2018-07-11T16:28:41.298Z,44.45
2018-07-11T16:31:10.074Z,43.90
2018-07-11T16:33:39.183Z,43.20
2018-07-11T16:36:08.022Z,43.74
2018-07-11T16:38:36.840Z,42.78
2018-07-11T16:41:05.636Z,41.91
2018-07-11T16:43:34.719Z,40.83
2018-07-11T16:46:03.581Z,42.42
2018-07-11T16:48:32.380Z,42.29
2018-07-11T16:51:01.166Z,41.60
2018-07-11T16:53:29.985Z,41.31
2018-07-11T16:55:58.745Z,41.21
2018-07-11T16:58:30.358Z,41.47
2018-07-11T17:01:00.526Z,40.47
2018-07-11T17:03:29.763Z,42.50
2018-07-11T17:06:07.299Z,42.71
2018-07-11T17:08:38.308Z,42.35
2018-07-11T17:11:19.404Z,43.92
2018-07-11T17:13:51.246Z,42.93
2018-07-11T17:16:21.227Z,44.79
2018-07-11T17:18:53.879Z,44.35
2018-07-11T17:21:35.001Z,44.48
2018-07-11T17:24:09.697Z,44.82
2018-07-11T17:26:46.564Z,45.47
2018-07-11T17:29:30.838Z,46.26
2018-07-11T17:32:06.178Z,45.94
2018-07-11T17:34:36.423Z,46.55
2018-07-11T17:37:06.643Z,46.65
2018-07-11T17:39:56.507Z,45.70
2018-07-11T17:42:28.499Z,46.42
2018-07-11T17:45:09.433Z,48.14
2018-07-11T17:49:51.654Z,49.01
2018-07-11T17:52:20.453Z,49.66
2018-07-11T17:55:15.762Z,49.48
2018-07-11T17:57:53.470Z,50.65
2018-07-11T18:01:47.480Z,50.74
2018-07-11T18:04:23.721Z,52.04
2018-07-11T18:07:00.490Z,53.73
2018-07-11T18:09:45.952Z,53.04
2018-07-11T18:12:25.016Z,53.33
2018-07-11T18:15:04.673Z,53.94
2018-07-11T18:17:43.687Z,54.20
2018-07-11T18:22:26.184Z,54.60
2018-07-11T18:25:17.497Z,54.92
2018-07-11T18:27:56.251Z,55.06
2018-07-11T18:30:34.845Z,56.39
2018-07-11T18:33:40.142Z,56.72
2018-07-11T18:37:33.890Z,56.49
2018-07-11T18:40:03.942Z,56.45
2018-07-11T18:42:43.698Z,56.47
2018-07-11T18:47:27.275Z,55.91
2018-07-11T18:50:05.768Z,57.64
2018-07-11T18:53:40.962Z,56.74
2018-07-11T18:56:25.327Z,58.74
2018-07-11T18:58:59.429Z,58.88
2018-07-11T19:01:45.456Z,59.36
2018-07-11T19:04:21.168Z,59.75
2018-07-11T19:06:59.953Z,58.06
2018-07-11T19:09:39.040Z,58.50
2018-07-11T19:12:35.059Z,59.72
2018-07-11T19:15:10.942Z,58.94
2018-07-11T19:21:00.848Z,57.78
2018-07-11T19:23:39.845Z,59.84
2018-07-11T19:26:20.751Z,59.83
2018-07-11T19:29:04.099Z,60.37
2018-07-11T19:31:45.035Z,59.91
2018-07-11T19:36:29.525Z,59.36
2018-07-11T19:40:07.860Z,60.88
2018-07-11T19:43:01.491Z,60.70
2018-07-11T19:46:02.949Z,60.96
2018-07-11T19:49:00.974Z,61.73
2018-07-11T19:51:39.199Z,62.66
2018-07-11T19:56:24.423Z,63.22
2018-07-11T19:58:53.359Z,63.15
2018-07-11T20:01:22.174Z,63.27
2018-07-11T20:03:51.793Z,63.09
2018-07-11T20:06:21.299Z,62.68
2018-07-11T20:08:50.509Z,62.64
2018-07-11T20:11:20.289Z,63.43
2018-07-11T20:13:49.273Z,63.58
2018-07-11T20:16:18.130Z,63.72
2018-07-11T20:18:46.899Z,63.94
2018-07-11T20:21:15.546Z,63.55
2018-07-11T20:23:45.142Z,63.79
2018-07-11T20:26:14.303Z,62.99
2018-07-11T20:28:43.407Z,62.86
2018-07-11T20:31:12.178Z,61.66
2018-07-11T20:33:40.854Z,63.51
2018-07-11T20:36:09.553Z,61.76
2018-07-11T20:38:38.781Z,63.13
2018-07-11T20:41:08.294Z,63.07
2018-07-11T20:43:37.007Z,64.18
2018-07-11T20:46:06.718Z,65.05
2018-07-11T20:48:36.508Z,65.65
2018-07-11T20:51:05.725Z,64.96
2018-07-11T20:53:34.361Z,65.28
2018-07-11T20:56:03.110Z,65.13
2018-07-11T20:58:43.581Z,65.00
2018-07-11T21:01:23.338Z,65.25
2018-07-11T21:04:46.975Z,65.00
2018-07-11T21:07:33.184Z,65.95
2018-07-11T21:10:48.951Z,66.11
2018-07-11T21:15:37.019Z,66.36
2018-07-11T21:18:17.012Z,66.76
2018-07-11T21:20:45.810Z,67.20
2018-07-11T21:23:14.599Z,67.26
2018-07-11T21:25:43.317Z,67.96
2018-07-11T21:28:11.957Z,67.81
2018-07-11T21:30:40.756Z,68.92
2018-07-11T21:33:10.367Z,69.36
2018-07-11T21:35:38.990Z,69.23
2018-07-11T21:38:07.751Z,70.02
2018-07-11T21:40:36.473Z,70.76
2018-07-11T21:43:06.198Z,70.79
2018-07-11T21:45:34.935Z,71.09
2018-07-11T21:48:03.745Z,71.20
2018-07-11T21:50:32.560Z,71.48
2018-07-11T21:53:01.222Z,71.34
2018-07-11T21:55:29.951Z,71.38
2018-07-11T21:57:58.700Z,71.58
2018-07-11T22:00:33.803Z,72.11
2018-07-11T22:03:02.631Z,72.49
2018-07-11T22:05:32.090Z,72.48
2018-07-11T22:08:00.744Z,72.70
2018-07-11T22:10:29.451Z,72.41
2018-07-11T22:12:58.132Z,73.14
2018-07-11T22:15:27.088Z,72.69
2018-07-11T22:18:06.870Z,72.95
2018-07-11T22:20:34.774Z,72.42
2018-07-11T22:23:03.166Z,72.06
2018-07-11T22:25:30.825Z,72.17
2018-07-11T22:27:58.283Z,72.20
2018-07-11T22:30:26.051Z,71.58
2018-07-11T22:32:53.507Z,72.12
2018-07-11T22:35:20.893Z,71.57
2018-07-11T22:37:48.297Z,72.02
2018-07-11T22:40:15.687Z,71.91
2018-07-11T22:42:44.014Z,72.29
2018-07-11T22:45:11.407Z,72.61
2018-07-11T22:47:38.846Z,72.59
2018-07-11T22:50:06.270Z,72.46
2018-07-11T22:52:33.622Z,72.63
2018-07-11T22:55:01.030Z,72.94
2018-07-11T22:57:28.410Z,73.08
2018-07-11T22:59:55.767Z,73.19
2018-07-11T23:02:23.157Z,73.59
2018-07-11T23:04:50.654Z,73.43
2018-07-11T23:07:18.075Z,73.21
2018-07-11T23:09:45.426Z,73.39
2018-07-11T23:12:12.786Z,73.56
2018-07-11T23:14:40.196Z,73.94
2018-07-11T23:17:07.575Z,73.72
2018-07-11T23:19:34.926Z,73.93
2018-07-11T23:22:02.357Z,73.90
2018-07-11T23:24:29.751Z,73.75
2018-07-11T23:26:57.120Z,73.36
2018-07-11T23:29:24.524Z,73.47
2018-07-11T23:31:51.889Z,73.89
2018-07-11T23:34:19.249Z,74.39
2018-07-11T23:36:46.722Z,73.58
2018-07-11T23:39:14.160Z,73.10
2018-07-11T23:41:41.570Z,72.90
2018-07-11T23:44:08.914Z,73.44
2018-07-11T23:46:36.328Z,73.83
2018-07-11T23:49:03.733Z,73.65
2018-07-11T23:51:31.195Z,73.67
2018-07-11T23:53:58.548Z,73.85
2018-07-11T23:56:25.972Z,73.23
2018-07-11T23:58:53.736Z,73.72
